createdAt,value
2019-04-14T00:00:11.862Z,5.40
2019-04-14T00:02:16.380Z,5.40
2019-04-14T00:04:16.165Z,5.40
2019-04-14T00:06:09.133Z,5.30
2019-04-14T00:08:02.422Z,5.30
2019-04-14T00:09:54.944Z,5.30
2019-04-14T00:11:48.124Z,5.30
2019-04-14T00:13:41.444Z,5.40
2019-04-14T00:15:39.625Z,5.40
2019-04-14T00:17:28.381Z,5.40
2019-04-14T00:19:21.500Z,5.40
2019-04-14T00:21:15.162Z,5.50
2019-04-14T00:23:08.776Z,5.50
2019-04-14T00:25:02.410Z,5.40
2019-04-14T00:26:55.302Z,5.30
2019-04-14T00:28:47.587Z,5.40
2019-04-14T00:30:40.513Z,5.40
2019-04-14T00:32:35.250Z,5.30
2019-04-14T00:34:39.889Z,5.30
2019-04-14T00:36:43.776Z,5.30
2019-04-14T00:38:37.648Z,5.10
2019-04-14T00:40:34.689Z,5.10
2019-04-14T00:42:37.372Z,5.00
2019-04-14T00:44:38.750Z,5.00
2019-04-14T00:46:45.289Z,4.90
2019-04-14T00:48:38.727Z,4.90
2019-04-14T00:50:31.951Z,5.00
2019-04-14T00:52:25.422Z,4.90
2019-04-14T00:54:17.638Z,4.90
2019-04-14T00:56:10.505Z,4.90
2019-04-14T00:58:02.419Z,4.90
2019-04-14T00:59:55.250Z,4.90
2019-04-14T01:01:48.413Z,4.90
2019-04-14T01:03:41.555Z,4.90
2019-04-14T01:05:34.848Z,4.90
2019-04-14T01:07:28.371Z,5.00
2019-04-14T01:09:21.553Z,5.00
2019-04-14T01:11:14.249Z,4.90
2019-04-14T01:13:09.525Z,5.00
2019-04-14T01:15:00.755Z,4.90
2019-04-14T01:16:53.847Z,4.90
2019-04-14T01:18:47.310Z,4.90
2019-04-14T01:20:40.636Z,4.90
2019-04-14T01:22:33.538Z,4.90
2019-04-14T01:24:27.161Z,4.80
2019-04-14T01:26:20.363Z,4.90
2019-04-14T01:28:13.727Z,4.80
2019-04-14T01:30:06.790Z,4.80
2019-04-14T01:32:00.070Z,4.70
2019-04-14T01:33:53.289Z,4.80
2019-04-14T01:35:46.716Z,4.70
2019-04-14T01:37:39.774Z,4.60
2019-04-14T01:39:33.388Z,4.70
2019-04-14T01:41:26.056Z,4.70
2019-04-14T01:43:18.983Z,4.70
2019-04-14T01:45:12.863Z,4.70
2019-04-14T01:47:05.321Z,4.70
2019-04-14T01:48:58.617Z,4.80
2019-04-14T01:50:53.555Z,4.70
2019-04-14T01:52:50.288Z,4.70
2019-04-14T01:54:45.318Z,4.80
2019-04-14T01:56:45.107Z,4.80
2019-04-14T01:58:44.818Z,4.90
2019-04-14T02:00:53.612Z,4.90
2019-04-14T02:02:46.513Z,4.80
2019-04-14T02:04:39.879Z,4.80
2019-04-14T02:06:31.848Z,4.80
2019-04-14T02:08:24.226Z,4.80
2019-04-14T02:10:17.260Z,4.70
2019-04-14T02:12:10.567Z,4.80
2019-04-14T02:14:04.694Z,4.70
2019-04-14T02:16:12.100Z,4.80
2019-04-14T02:17:52.533Z,4.70
2019-04-14T02:19:45.888Z,4.70
2019-04-14T02:21:38.849Z,4.70
2019-04-14T02:23:32.304Z,4.70
2019-04-14T02:25:25.961Z,4.60
2019-04-14T02:27:19.404Z,4.60
2019-04-14T02:29:12.151Z,4.60
2019-04-14T02:31:21.357Z,4.60
2019-04-14T02:33:32.166Z,4.60
2019-04-14T02:35:21.136Z,4.60
2019-04-14T02:37:24.414Z,4.60
2019-04-14T02:39:06.450Z,4.60
2019-04-14T02:41:02.450Z,4.50
2019-04-14T02:46:47.607Z,4.50
2019-04-14T02:48:49.199Z,4.50
2019-04-14T02:50:30.622Z,4.50
2019-04-14T02:52:30.441Z,4.40
2019-04-14T02:54:27.515Z,4.40
2019-04-14T02:56:21.815Z,4.30
2019-04-14T02:58:15.703Z,4.30
2019-04-14T03:03:54.253Z,4.40
2019-04-14T03:07:36.157Z,4.40
2019-04-14T03:11:31.189Z,4.40
2019-04-14T03:13:21.161Z,4.40
2019-04-14T03:15:17.737Z,4.40
2019-04-14T03:19:06.432Z,4.40
2019-04-14T03:21:19.583Z,4.50
2019-04-14T03:23:19.094Z,4.40
2019-04-14T03:25:00.608Z,4.30
2019-04-14T03:27:17.674Z,4.40
2019-04-14T03:29:02.454Z,4.40
2019-04-14T03:31:31.579Z,4.40
2019-04-14T03:33:27.256Z,4.40
2019-04-14T03:35:13.221Z,4.30
2019-04-14T03:38:40.728Z,4.30
2019-04-14T03:40:37.328Z,4.40
2019-04-14T03:42:29.560Z,4.30
2019-04-14T03:44:19.148Z,4.30
2019-04-14T03:50:17.276Z,4.30
2019-04-14T03:52:05.122Z,4.30
2019-04-14T03:53:47.247Z,4.30
2019-04-14T03:55:43.284Z,4.30
2019-04-14T03:57:30.075Z,4.30
2019-04-14T03:59:24.066Z,4.20
2019-04-14T04:01:17.253Z,4.20
2019-04-14T04:03:10.732Z,4.20
2019-04-14T04:05:04.209Z,4.20
2019-04-14T04:06:57.486Z,4.30
2019-04-14T04:08:49.489Z,4.20
2019-04-14T04:10:53.280Z,4.10
2019-04-14T04:12:46.479Z,4.10
2019-04-14T04:14:39.868Z,4.10
2019-04-14T04:16:33.764Z,4.10
2019-04-14T04:18:28.670Z,4.10
2019-04-14T04:20:39.552Z,4.20
2019-04-14T04:22:36.898Z,4.20
2019-04-14T04:24:37.089Z,4.20
2019-04-14T04:26:41.387Z,4.30
2019-04-14T04:28:51.815Z,4.20
2019-04-14T04:30:45.508Z,4.20
2019-04-14T04:32:44.852Z,4.20
2019-04-14T04:34:42.271Z,4.20
2019-04-14T04:36:36.124Z,4.20
2019-04-14T04:38:35.711Z,4.20
2019-04-14T04:40:31.120Z,4.20
2019-04-14T04:42:24.348Z,4.40
2019-04-14T04:44:17.929Z,4.20
2019-04-14T04:46:11.267Z,4.20
2019-04-14T04:48:04.546Z,4.20
2019-04-14T04:49:57.565Z,4.20
2019-04-14T04:51:50.750Z,4.30
2019-04-14T04:53:44.034Z,4.20
2019-04-14T04:55:37.287Z,4.10
2019-04-14T04:57:30.658Z,4.20
2019-04-14T04:59:23.461Z,4.20
2019-04-14T05:01:16.733Z,4.30
2019-04-14T05:03:10.033Z,4.30
2019-04-14T05:05:03.511Z,4.30
2019-04-14T05:06:57.525Z,4.30
2019-04-14T05:08:54.420Z,4.20
2019-04-14T05:11:05.407Z,4.30
2019-04-14T05:13:00.760Z,4.20
2019-04-14T05:14:54.967Z,4.30
2019-04-14T05:16:46.974Z,4.30
2019-04-14T05:18:39.857Z,4.40
2019-04-14T05:20:31.953Z,4.30
2019-04-14T05:22:24.748Z,4.30
2019-04-14T05:24:17.930Z,4.30
2019-04-14T05:26:11.315Z,4.30
2019-04-14T05:28:04.783Z,4.30
2019-04-14T05:29:58.028Z,4.30
2019-04-14T05:31:51.145Z,4.40
2019-04-14T05:33:44.773Z,4.40
2019-04-14T05:35:38.034Z,4.40
2019-04-14T05:37:31.111Z,4.30
2019-04-14T05:39:24.289Z,4.30
2019-04-14T05:41:17.897Z,4.30
2019-04-14T05:43:11.323Z,4.30
2019-04-14T05:45:06.523Z,4.30
2019-04-14T05:46:59.980Z,4.30
2019-04-14T05:48:53.630Z,4.30
2019-04-14T05:50:46.874Z,4.40
2019-04-14T05:52:40.487Z,4.50
2019-04-14T05:54:33.954Z,4.50
2019-04-14T05:56:27.475Z,4.40
2019-04-14T05:58:20.685Z,4.40
2019-04-14T06:00:15.183Z,4.40
2019-04-14T06:02:07.280Z,4.50
2019-04-14T06:04:00.331Z,4.40
2019-04-14T06:05:53.264Z,4.40
2019-04-14T06:07:45.454Z,4.40
2019-04-14T06:09:38.081Z,4.60
2019-04-14T06:11:30.162Z,4.50
2019-04-14T06:13:22.524Z,4.50
2019-04-14T06:15:16.299Z,4.40
2019-04-14T06:17:09.004Z,4.50
2019-04-14T06:19:01.366Z,4.60
2019-04-14T06:20:53.680Z,4.60
2019-04-14T06:22:45.955Z,4.60
2019-04-14T06:24:38.296Z,4.60
2019-04-14T06:26:30.902Z,4.70
2019-04-14T06:28:23.012Z,4.60
2019-04-14T06:30:16.842Z,4.60
2019-04-14T06:32:25.776Z,4.70
2019-04-14T06:34:28.336Z,4.80
2019-04-14T06:36:22.432Z,4.70
2019-04-14T06:38:16.292Z,4.60
2019-04-14T06:40:10.143Z,4.60
2019-04-14T06:42:02.132Z,4.60
2019-04-14T06:43:54.369Z,4.60
2019-04-14T06:45:46.256Z,4.60
2019-04-14T06:47:38.447Z,4.80
2019-04-14T06:49:30.451Z,4.80
2019-04-14T06:51:22.823Z,4.70
2019-04-14T06:53:14.973Z,4.70
2019-04-14T06:55:07.186Z,4.80
2019-04-14T06:56:59.624Z,4.80
2019-04-14T06:58:51.636Z,4.90
2019-04-14T07:00:43.974Z,5.00
2019-04-14T07:02:36.124Z,5.00
2019-04-14T07:04:28.575Z,5.20
2019-04-14T07:06:20.520Z,5.30
2019-04-14T07:08:12.886Z,5.50
2019-04-14T07:10:05.401Z,5.50
2019-04-14T07:11:58.163Z,5.50
2019-04-14T07:13:50.406Z,5.70
2019-04-14T07:15:42.380Z,5.90
2019-04-14T07:17:35.832Z,6.10
2019-04-14T07:19:28.174Z,6.20
2019-04-14T07:21:20.511Z,6.20
2019-04-14T07:23:12.688Z,6.20
2019-04-14T07:25:05.535Z,6.10
2019-04-14T07:26:57.939Z,6.20
2019-04-14T07:28:56.519Z,6.10
2019-04-14T07:30:48.072Z,5.90
2019-04-14T07:32:45.190Z,5.90
2019-04-14T07:34:39.148Z,6.00
2019-04-14T07:36:38.454Z,6.00
2019-04-14T07:38:41.611Z,6.10
2019-04-14T07:40:52.128Z,6.20
2019-04-14T07:42:45.820Z,6.30
2019-04-14T07:44:54.796Z,6.40
2019-04-14T07:46:51.018Z,6.30
2019-04-14T07:48:45.083Z,6.40
2019-04-14T07:50:38.988Z,6.50
2019-04-14T07:52:35.379Z,6.60
2019-04-14T07:54:29.267Z,6.70
2019-04-14T07:56:26.028Z,6.90
2019-04-14T07:58:32.035Z,7.00
2019-04-14T08:00:43.831Z,6.90
2019-04-14T08:02:37.680Z,6.90
2019-04-14T08:04:31.643Z,6.90
2019-04-14T08:06:23.948Z,7.20
2019-04-14T08:08:16.243Z,7.10
2019-04-14T08:10:08.337Z,7.00
2019-04-14T08:12:00.912Z,7.20
2019-04-14T08:13:52.924Z,7.40
2019-04-14T08:15:45.424Z,7.20
2019-04-14T08:17:37.667Z,7.30
2019-04-14T08:19:30.148Z,7.00
2019-04-14T08:21:22.601Z,6.90
2019-04-14T08:23:14.768Z,6.70
2019-04-14T08:25:08.068Z,6.80
2019-04-14T08:27:00.187Z,7.00
2019-04-14T08:28:52.277Z,7.00
2019-04-14T08:30:44.900Z,7.00
2019-04-14T08:32:37.384Z,7.20
2019-04-14T08:34:29.635Z,7.10
2019-04-14T08:36:22.055Z,7.00
2019-04-14T08:38:14.142Z,7.10
2019-04-14T08:40:07.259Z,7.50
2019-04-14T08:42:16.314Z,7.60
2019-04-14T08:44:16.429Z,7.60
2019-04-14T08:46:18.981Z,8.10
2019-04-14T08:48:12.813Z,8.20
2019-04-14T08:50:11.109Z,8.20
2019-04-14T08:52:05.143Z,8.40
2019-04-14T08:54:01.578Z,8.20
2019-04-14T08:55:58.132Z,8.10
2019-04-14T08:58:08.106Z,8.10
2019-04-14T09:00:07.980Z,8.30
2019-04-14T09:02:17.981Z,8.20
2019-04-14T09:04:21.085Z,8.60
2019-04-14T09:06:24.129Z,9.10
2019-04-14T09:08:17.969Z,9.60
2019-04-14T09:10:17.738Z,9.60
2019-04-14T09:12:15.675Z,9.40
2019-04-14T09:14:08.412Z,9.30
2019-04-14T09:16:00.702Z,9.20
2019-04-14T09:17:53.072Z,9.00
2019-04-14T09:19:45.336Z,8.80
2019-04-14T09:21:37.423Z,8.80
2019-04-14T09:23:29.340Z,8.90
2019-04-14T09:25:21.292Z,9.00
2019-04-14T09:27:13.582Z,8.90
2019-04-14T09:29:06.039Z,9.00
2019-04-14T09:30:58.487Z,9.40
2019-04-14T09:32:51.105Z,9.50
2019-04-14T09:34:43.456Z,9.30
2019-04-14T09:36:35.907Z,9.10
2019-04-14T09:38:29.563Z,9.50
2019-04-14T09:40:21.896Z,9.70
2019-04-14T09:42:14.229Z,9.40
2019-04-14T09:44:06.542Z,9.30
2019-04-14T09:45:58.609Z,9.40
2019-04-14T09:47:50.753Z,9.20
2019-04-14T09:49:43.188Z,9.10
2019-04-14T09:51:35.520Z,9.30
2019-04-14T09:53:27.784Z,9.40
2019-04-14T09:55:20.032Z,9.70
2019-04-14T09:57:13.251Z,9.70
2019-04-14T09:59:05.618Z,9.70
2019-04-14T10:00:58.400Z,9.60
2019-04-14T10:02:50.743Z,9.50
2019-04-14T10:04:44.317Z,9.50
2019-04-14T10:06:36.600Z,9.20
2019-04-14T10:08:29.277Z,9.40
2019-04-14T10:10:21.531Z,9.50
2019-04-14T10:12:17.208Z,9.80
2019-04-14T10:14:10.019Z,10.10
2019-04-14T10:16:02.556Z,10.40
2019-04-14T10:17:55.085Z,10.70
2019-04-14T10:19:47.301Z,10.50
2019-04-14T10:21:39.642Z,10.10
2019-04-14T10:23:31.796Z,10.00
2019-04-14T10:25:20.025Z,10.00
2019-04-14T10:27:12.176Z,10.20
2019-04-14T10:29:04.522Z,10.30
2019-04-14T10:30:56.733Z,10.60
2019-04-14T10:32:48.922Z,11.00
2019-04-14T10:34:40.856Z,10.90
2019-04-14T10:36:33.193Z,10.40
2019-04-14T10:38:25.085Z,10.10
2019-04-14T10:40:17.108Z,9.90
2019-04-14T10:42:09.298Z,10.00
2019-04-14T10:44:01.684Z,9.80
2019-04-14T10:45:53.834Z,9.80
2019-04-14T10:47:45.982Z,9.60
2019-04-14T10:49:38.611Z,9.70
2019-04-14T10:51:33.922Z,9.90
2019-04-14T10:53:24.973Z,9.90
2019-04-14T10:55:16.887Z,10.00
2019-04-14T10:56:50.952Z,10.00
2019-04-14T10:58:43.137Z,9.90
2019-04-14T11:00:35.463Z,9.90
2019-04-14T11:02:27.642Z,9.50
2019-04-14T11:04:20.438Z,9.40
2019-04-14T11:06:14.102Z,9.60
2019-04-14T11:08:06.463Z,9.70
2019-04-14T11:09:58.713Z,9.40
2019-04-14T11:11:51.364Z,9.50
2019-04-14T11:13:43.447Z,9.40
2019-04-14T11:15:35.819Z,9.40
2019-04-14T11:17:27.652Z,9.00
2019-04-14T11:19:19.780Z,9.20
2019-04-14T11:21:12.278Z,9.10
2019-04-14T11:23:04.873Z,9.10
2019-04-14T11:25:04.348Z,9.10
2019-04-14T11:27:00.117Z,9.00
2019-04-14T11:28:52.138Z,8.90
2019-04-14T11:30:44.361Z,8.90
2019-04-14T11:32:54.485Z,9.00
2019-04-14T11:35:03.477Z,9.10
2019-04-14T11:36:55.632Z,8.90
2019-04-14T11:38:31.597Z,8.90
2019-04-14T11:40:43.835Z,8.80
2019-04-14T11:42:36.357Z,8.70
2019-04-14T11:44:28.785Z,8.80
2019-04-14T11:46:20.872Z,8.70
2019-04-14T11:48:13.090Z,8.80
2019-04-14T11:50:06.619Z,8.90
2019-04-14T11:51:58.725Z,8.90
2019-04-14T11:53:32.583Z,9.00
2019-04-14T11:55:09.594Z,8.90
2019-04-14T11:56:43.298Z,8.80
2019-04-14T11:58:17.103Z,8.80
2019-04-14T12:00:01.493Z,8.90
2019-04-14T12:01:54.210Z,9.00
2019-04-14T12:03:32.358Z,9.00
2019-04-14T12:05:08.772Z,9.10
2019-04-14T12:07:06.040Z,9.20
2019-04-14T12:09:02.879Z,9.20
2019-04-14T12:10:56.778Z,9.20
2019-04-14T12:12:49.172Z,9.40
2019-04-14T12:14:44.318Z,9.30
2019-04-14T12:16:36.764Z,9.30
2019-04-14T12:18:29.140Z,9.20
2019-04-14T12:20:21.617Z,9.30
2019-04-14T12:22:13.566Z,9.30
2019-04-14T12:24:05.821Z,9.30
2019-04-14T12:26:05.236Z,9.40
2019-04-14T12:27:33.615Z,9.30
2019-04-14T12:29:07.203Z,9.30
2019-04-14T12:30:41.949Z,9.10
2019-04-14T12:32:34.374Z,9.10
2019-04-14T12:34:26.261Z,9.00
2019-04-14T12:36:18.812Z,8.90
2019-04-14T12:38:10.912Z,8.80
2019-04-14T12:40:03.165Z,9.10
2019-04-14T12:41:58.068Z,9.10
2019-04-14T12:44:08.515Z,9.00
2019-04-14T12:46:06.243Z,9.20
2019-04-14T12:48:02.833Z,9.10
2019-04-14T12:50:02.562Z,9.10
2019-04-14T12:51:56.417Z,9.20
2019-04-14T12:53:31.355Z,9.40
2019-04-14T12:55:06.284Z,9.50
2019-04-14T12:56:43.451Z,9.50
2019-04-14T12:58:20.311Z,9.50
2019-04-14T12:59:54.521Z,9.50
2019-04-14T13:01:29.823Z,9.50
2019-04-14T13:03:03.504Z,9.70
2019-04-14T13:04:37.158Z,9.70
2019-04-14T13:06:10.886Z,9.40
2019-04-14T13:07:44.533Z,9.60
2019-04-14T13:09:18.454Z,9.50
2019-04-14T13:10:52.155Z,9.50
2019-04-14T13:12:25.882Z,9.60
2019-04-14T13:14:00.609Z,9.60
2019-04-14T13:15:34.363Z,9.50
2019-04-14T13:17:08.019Z,9.50
2019-04-14T13:18:41.715Z,9.60
2019-04-14T13:20:15.406Z,9.50
2019-04-14T13:21:49.305Z,9.40
2019-04-14T13:23:23.002Z,9.30
2019-04-14T13:24:56.563Z,9.20
2019-04-14T13:26:30.295Z,9.10
2019-04-14T13:28:04.452Z,9.00
2019-04-14T13:29:38.045Z,9.10
2019-04-14T13:31:11.628Z,9.00
2019-04-14T13:32:45.231Z,8.80
2019-04-14T13:34:19.122Z,8.90
2019-04-14T13:35:52.740Z,8.90
2019-04-14T13:37:26.500Z,8.90
2019-04-14T13:39:00.085Z,8.90
2019-04-14T13:40:33.671Z,9.00
2019-04-14T13:42:07.424Z,9.00
2019-04-14T13:43:41.106Z,9.10
2019-04-14T13:45:14.759Z,9.20
2019-04-14T13:46:48.352Z,9.20
2019-04-14T13:48:21.936Z,9.20
2019-04-14T13:49:55.838Z,9.20
2019-04-14T13:51:29.598Z,9.30
2019-04-14T13:53:03.560Z,9.40
2019-04-14T13:54:37.168Z,9.20
2019-04-14T13:56:10.804Z,9.30
2019-04-14T13:58:03.033Z,9.50
2019-04-14T13:59:55.405Z,9.20
2019-04-14T14:01:47.548Z,9.10
2019-04-14T14:03:39.868Z,8.80
2019-04-14T14:05:32.203Z,8.80
2019-04-14T14:07:24.373Z,8.90
2019-04-14T14:09:16.244Z,8.90
2019-04-14T14:11:26.192Z,9.10
2019-04-14T14:13:31.863Z,9.00
2019-04-14T14:15:28.642Z,9.10
2019-04-14T14:17:34.117Z,9.00
2019-04-14T14:19:30.686Z,9.00
2019-04-14T14:21:24.548Z,9.00
2019-04-14T14:23:21.141Z,9.10
2019-04-14T14:25:17.959Z,9.10
2019-04-14T14:27:11.027Z,9.10
2019-04-14T14:29:03.227Z,9.10
2019-04-14T14:30:56.082Z,9.20
2019-04-14T14:32:48.529Z,9.20
2019-04-14T14:34:40.996Z,9.20
2019-04-14T14:36:33.508Z,9.10
2019-04-14T14:38:25.952Z,9.20
2019-04-14T14:40:18.166Z,9.20
2019-04-14T14:42:10.878Z,9.20
2019-04-14T14:44:03.225Z,9.30
2019-04-14T14:45:56.946Z,9.70
2019-04-14T14:48:00.763Z,9.60
2019-04-14T14:50:06.254Z,9.70
2019-04-14T14:52:03.403Z,9.80
2019-04-14T14:53:56.148Z,9.60
2019-04-14T14:55:48.998Z,9.50
2019-04-14T14:57:41.318Z,9.70
2019-04-14T14:59:33.635Z,9.70
2019-04-14T15:01:26.337Z,9.90
2019-04-14T15:03:18.838Z,9.90
2019-04-14T15:05:11.258Z,9.90
2019-04-14T15:07:03.720Z,9.80
2019-04-14T15:08:56.279Z,10.00
2019-04-14T15:10:49.028Z,9.90
2019-04-14T15:12:41.303Z,9.70
2019-04-14T15:14:33.765Z,9.80
2019-04-14T15:16:26.024Z,9.90
2019-04-14T15:18:18.593Z,9.70
2019-04-14T15:20:11.046Z,9.80
2019-04-14T15:22:03.534Z,9.90
2019-04-14T15:23:55.719Z,10.10
2019-04-14T15:25:47.971Z,9.90
2019-04-14T15:27:40.285Z,9.60
2019-04-14T15:29:13.888Z,9.60
2019-04-14T15:30:48.024Z,9.80
2019-04-14T15:32:21.887Z,9.70
2019-04-14T15:33:55.696Z,9.80
2019-04-14T15:35:29.367Z,9.60
2019-04-14T15:37:03.003Z,9.40
2019-04-14T15:38:36.834Z,9.70
2019-04-14T15:40:10.669Z,9.60
2019-04-14T15:41:44.400Z,9.40
2019-04-14T15:43:18.334Z,9.40
2019-04-14T15:44:52.068Z,9.60
2019-04-14T15:46:25.768Z,9.60
2019-04-14T15:47:59.768Z,9.60
2019-04-14T15:49:33.766Z,9.60
2019-04-14T15:51:07.643Z,9.60
2019-04-14T15:52:41.555Z,9.50
2019-04-14T15:54:15.431Z,9.50
2019-04-14T15:55:49.398Z,9.60
2019-04-14T15:57:36.973Z,9.50
2019-04-14T15:59:29.569Z,9.50
2019-04-14T16:01:14.360Z,9.30
2019-04-14T16:02:55.654Z,9.30
2019-04-14T16:04:33.960Z,9.20
2019-04-14T16:06:09.831Z,9.20
2019-04-14T16:07:57.175Z,9.10
2019-04-14T16:09:51.328Z,9.00
2019-04-14T16:11:45.507Z,9.00
2019-04-14T16:13:42.665Z,8.90
2019-04-14T16:15:39.523Z,9.10
2019-04-14T16:17:33.797Z,9.00
2019-04-14T16:19:46.074Z,9.10
2019-04-14T16:21:38.301Z,9.00
2019-04-14T16:23:31.095Z,9.10
2019-04-14T16:25:25.488Z,9.00
2019-04-14T16:27:25.060Z,9.00
2019-04-14T16:29:25.454Z,9.00
2019-04-14T16:31:19.532Z,9.10
2019-04-14T16:33:29.294Z,9.20
2019-04-14T16:35:23.105Z,9.10
2019-04-14T16:37:15.700Z,9.20
2019-04-14T16:39:08.719Z,9.30
2019-04-14T16:41:02.269Z,9.10
2019-04-14T16:42:55.497Z,9.00
2019-04-14T16:44:48.189Z,9.00
2019-04-14T16:46:42.132Z,8.90
2019-04-14T16:48:34.783Z,8.90
2019-04-14T16:50:27.832Z,8.90
2019-04-14T16:52:24.882Z,8.90
2019-04-14T16:54:37.466Z,8.90
2019-04-14T16:56:31.732Z,8.90
2019-04-14T16:58:25.803Z,8.90
2019-04-14T17:00:23.222Z,8.80
2019-04-14T17:02:15.961Z,8.90
2019-04-14T17:04:08.733Z,8.80
2019-04-14T17:06:01.345Z,8.80
2019-04-14T17:07:54.340Z,8.80
2019-04-14T17:09:28.708Z,8.80
2019-04-14T17:11:03.267Z,8.80
2019-04-14T17:12:38.555Z,8.70
2019-04-14T17:14:17.547Z,8.60
2019-04-14T17:16:02.649Z,8.60
2019-04-14T17:17:39.542Z,8.50
2019-04-14T17:19:18.027Z,8.60
2019-04-14T17:20:53.615Z,8.40
2019-04-14T17:22:29.364Z,8.40
2019-04-14T17:24:16.000Z,8.40
2019-04-14T17:25:53.159Z,8.40
2019-04-14T17:27:32.002Z,8.50
2019-04-14T17:29:14.641Z,8.40
2019-04-14T17:30:50.905Z,8.50
2019-04-14T17:32:43.604Z,8.50
2019-04-14T17:34:20.090Z,8.50
2019-04-14T17:35:59.041Z,8.40
2019-04-14T17:37:44.521Z,8.40
2019-04-14T17:39:45.085Z,8.40
2019-04-14T17:41:35.877Z,8.40
2019-04-14T17:43:11.853Z,8.30
2019-04-14T17:44:53.714Z,8.50
2019-04-14T17:46:32.338Z,8.50
2019-04-14T17:48:25.000Z,8.60
2019-04-14T17:50:17.609Z,8.50
2019-04-14T17:52:28.196Z,8.40
2019-04-14T17:54:29.770Z,8.30
2019-04-14T17:56:23.192Z,8.30
2019-04-14T17:58:18.712Z,8.30
2019-04-14T18:00:16.851Z,8.40
2019-04-14T18:02:20.864Z,8.40
2019-04-14T18:04:22.492Z,8.50
2019-04-14T18:06:20.414Z,8.30
2019-04-14T18:08:32.603Z,8.40
2019-04-14T18:10:27.860Z,8.40
2019-04-14T18:12:23.214Z,8.30
2019-04-14T18:14:34.916Z,8.40
2019-04-14T18:16:39.184Z,8.30
2019-04-14T18:18:36.748Z,8.20
2019-04-14T18:20:31.984Z,8.30
2019-04-14T18:22:25.248Z,8.30
2019-04-14T18:24:19.347Z,8.30
2019-04-14T18:26:13.475Z,8.20
2019-04-14T18:27:50.043Z,8.20
2019-04-14T18:29:44.849Z,8.20
2019-04-14T18:31:40.083Z,8.30
2019-04-14T18:33:41.044Z,8.30
2019-04-14T18:35:44.765Z,8.20
2019-04-14T18:37:39.864Z,8.20
2019-04-14T18:39:37.408Z,8.30
2019-04-14T18:41:32.554Z,8.20
2019-04-14T18:43:36.384Z,8.10
2019-04-14T18:45:34.054Z,8.10
2019-04-14T18:47:29.046Z,8.20
2019-04-14T18:49:25.176Z,8.20
2019-04-14T18:51:20.389Z,8.20
2019-04-14T18:53:31.873Z,8.20
2019-04-14T18:55:43.364Z,8.20
2019-04-14T18:57:56.377Z,8.10
2019-04-14T19:00:06.239Z,8.20
2019-04-14T19:02:01.995Z,8.10
2019-04-14T19:03:55.464Z,8.10
2019-04-14T19:05:49.327Z,8.10
2019-04-14T19:07:42.600Z,8.20
2019-04-14T19:09:36.446Z,8.20
2019-04-14T19:11:34.677Z,8.20
2019-04-14T19:13:35.743Z,8.10
2019-04-14T19:15:33.496Z,8.20
2019-04-14T19:17:37.879Z,8.10
2019-04-14T19:19:33.067Z,8.20
2019-04-14T19:21:28.695Z,8.20
2019-04-14T19:23:21.918Z,8.10
2019-04-14T19:25:17.008Z,8.10
2019-04-14T19:27:10.555Z,8.20
2019-04-14T19:28:45.371Z,8.20
2019-04-14T19:30:20.899Z,8.10
2019-04-14T19:31:55.807Z,8.00
2019-04-14T19:33:30.576Z,8.00
2019-04-14T19:35:05.956Z,8.10
2019-04-14T19:36:41.276Z,8.10
2019-04-14T19:38:17.231Z,8.10
2019-04-14T19:39:53.645Z,8.10
2019-04-14T19:41:29.026Z,8.10
2019-04-14T19:43:03.793Z,8.20
2019-04-14T19:44:38.759Z,8.20
2019-04-14T19:46:13.526Z,8.30
2019-04-14T19:47:48.550Z,8.20
2019-04-14T19:49:23.575Z,8.20
2019-04-14T19:50:58.889Z,8.10
2019-04-14T19:52:33.648Z,8.10
2019-04-14T19:54:08.663Z,8.00
2019-04-14T19:55:43.511Z,8.00
2019-04-14T19:57:18.606Z,8.10
2019-04-14T19:59:05.755Z,8.30
2019-04-14T20:00:49.654Z,8.40
2019-04-14T20:02:44.956Z,8.10
2019-04-14T20:04:20.033Z,8.20
2019-04-14T20:05:56.053Z,8.30
2019-04-14T20:07:31.233Z,8.10
2019-04-14T20:09:07.435Z,8.00
2019-04-14T20:10:44.118Z,8.00
2019-04-14T20:12:19.899Z,7.90
2019-04-14T20:13:55.246Z,8.00
2019-04-14T20:15:56.530Z,8.00
2019-04-14T20:18:03.545Z,8.00
2019-04-14T20:19:58.859Z,7.90
2019-04-14T20:22:09.907Z,7.90
2019-04-14T20:24:10.970Z,7.90
2019-04-14T20:25:47.359Z,7.90
2019-04-14T20:27:26.450Z,7.90
2019-04-14T20:29:21.311Z,7.90
2019-04-14T20:31:27.124Z,7.90
2019-04-14T20:33:20.758Z,7.90
2019-04-14T20:35:15.131Z,7.80
2019-04-14T20:37:08.891Z,7.90
2019-04-14T20:39:02.370Z,7.80
2019-04-14T20:40:56.957Z,7.70
2019-04-14T20:42:50.242Z,7.70
2019-04-14T20:44:42.548Z,7.70
2019-04-14T20:46:35.041Z,7.70
2019-04-14T20:48:27.742Z,7.70
2019-04-14T20:50:20.179Z,7.70
2019-04-14T20:52:12.882Z,7.70
2019-04-14T20:54:06.895Z,7.80
2019-04-14T20:55:59.320Z,7.70
2019-04-14T20:57:51.588Z,7.70
2019-04-14T20:59:43.978Z,7.70
2019-04-14T21:01:38.003Z,7.70
2019-04-14T21:03:47.810Z,7.70
2019-04-14T21:05:47.268Z,7.60
2019-04-14T21:07:43.467Z,7.60
2019-04-14T21:09:37.527Z,7.50
2019-04-14T21:11:31.557Z,7.50
2019-04-14T21:13:34.293Z,7.50
2019-04-14T21:15:36.645Z,7.50
2019-04-14T21:17:33.506Z,7.50
2019-04-14T21:19:27.329Z,7.50
2019-04-14T21:21:35.809Z,7.50
2019-04-14T21:23:30.129Z,7.40
2019-04-14T21:25:40.309Z,7.50
2019-04-14T21:27:50.076Z,7.50
2019-04-14T21:29:47.144Z,7.80
2019-04-14T21:31:55.893Z,7.70
2019-04-14T21:33:55.180Z,7.60
2019-04-14T21:35:51.992Z,7.50
2019-04-14T21:37:48.512Z,7.50
2019-04-14T21:39:48.089Z,7.50
2019-04-14T21:41:41.904Z,7.40
2019-04-14T21:43:34.499Z,7.30
2019-04-14T21:45:26.480Z,7.30
2019-04-14T21:47:18.699Z,7.20
2019-04-14T21:49:10.876Z,7.20
2019-04-14T21:51:03.104Z,7.30
2019-04-14T21:52:55.308Z,7.30
2019-04-14T21:54:47.321Z,7.20
2019-04-14T21:56:39.812Z,7.20
2019-04-14T21:58:51.534Z,7.00
2019-04-14T22:01:05.519Z,7.10
2019-04-14T22:03:05.320Z,7.00
2019-04-14T22:05:01.884Z,7.00
2019-04-14T22:07:04.404Z,6.90
2019-04-14T22:08:56.490Z,6.80
2019-04-14T22:10:50.227Z,6.80
2019-04-14T22:12:43.104Z,6.80
2019-04-14T22:14:35.653Z,6.80
2019-04-14T22:16:27.813Z,6.80
2019-04-14T22:18:19.940Z,6.80
2019-04-14T22:20:12.229Z,6.80
2019-04-14T22:22:04.568Z,6.70
2019-04-14T22:24:01.725Z,6.80
2019-04-14T22:25:51.887Z,6.70
2019-04-14T22:27:43.987Z,6.70
2019-04-14T22:29:36.452Z,6.60
2019-04-14T22:31:28.632Z,6.60
2019-04-14T22:33:20.746Z,6.60
2019-04-14T22:35:13.288Z,6.70
2019-04-14T22:37:05.512Z,6.80
2019-04-14T22:38:57.695Z,6.70
2019-04-14T22:40:49.999Z,6.70
2019-04-14T22:42:42.222Z,6.70
2019-04-14T22:44:34.137Z,6.70
2019-04-14T22:46:26.557Z,6.70
2019-04-14T22:48:18.751Z,6.60
2019-04-14T22:50:11.333Z,6.60
2019-04-14T22:52:03.237Z,6.60
2019-04-14T22:53:55.585Z,6.50
2019-04-14T22:55:48.008Z,6.50
2019-04-14T22:57:40.426Z,6.40
2019-04-14T22:59:32.973Z,6.40
2019-04-14T23:01:26.819Z,6.40
2019-04-14T23:03:20.764Z,6.40
2019-04-14T23:05:17.403Z,6.40
2019-04-14T23:07:27.343Z,6.40
2019-04-14T23:09:36.029Z,6.40
2019-04-14T23:11:32.544Z,6.40
2019-04-14T23:13:29.092Z,6.30
2019-04-14T23:15:31.929Z,6.30
2019-04-14T23:17:28.500Z,6.30
2019-04-14T23:19:28.415Z,6.20
2019-04-14T23:21:25.184Z,6.20
2019-04-14T23:23:21.717Z,6.20
2019-04-14T23:25:14.080Z,6.20
2019-04-14T23:27:05.959Z,6.30
2019-04-14T23:28:58.324Z,6.30
2019-04-14T23:30:50.283Z,6.20
2019-04-14T23:32:42.483Z,6.10
2019-04-14T23:34:34.425Z,6.00
2019-04-14T23:36:26.533Z,6.00
2019-04-14T23:38:18.635Z,6.00
2019-04-14T23:40:11.100Z,6.00
2019-04-14T23:42:03.047Z,6.00
2019-04-14T23:43:55.153Z,6.00
2019-04-14T23:45:47.136Z,6.00
2019-04-14T23:47:39.337Z,6.00
2019-04-14T23:49:31.623Z,6.10
2019-04-14T23:51:23.662Z,6.20
2019-04-14T23:53:15.923Z,6.10
2019-04-14T23:55:07.923Z,6.00
2019-04-14T23:57:05.847Z,5.90
2019-04-14T23:58:55.335Z,5.90
